KMGJ/MGJ METAR and TAF weather

Enter ICAO airport designator
Station Type Date Time Source
KMGJ METAR 2021/07/28 03:54 UTC NOAA

KMGJ 280354Z AUTO 00000KT 10SM FEW085 SCT110 19/18 A2995 RMK AO2 LTG DSNT S SLP140 T01890178


Station Type Date Time Source
KMGJ Decoded METAR 2021/07/28 03:54 UTC NOAA

MONTGOMERY ORANGE CO AIRPORT, NY, United States (KMGJ) 41-31N 074-16W 108M
Jul 27, 2021 - 11:54 PM EDT / 2021.07.28 0354 UTC
Wind: Calm:0
Visibility: 10 mile(s):0
Sky conditions: partly cloudy
Weather: Lightning observed
Temperature: 66.0 F (18.9 C)
Dew Point: 64.0 F (17.8 C)
Relative Humidity: 93%
Pressure (altimeter): 29.95 in. Hg (1014 hPa)
ob: KMGJ 280354Z AUTO 00000KT 10SM FEW085 SCT110 19/18 A2995 RMK AO2 LTG DSNT S SLP140 T01890178
cycle: 4

Station Type Date Time Source
KMGJ TAF UTC NOAA

Error!

Example: see airport list